createdAt,value
2023-01-10T00:01:30.705Z,98924.19
2023-01-10T00:04:33.715Z,98924.56
2023-01-10T00:07:36.725Z,98925.38
2023-01-10T00:10:39.670Z,98918.41
2023-01-10T00:13:43.079Z,98916.81
2023-01-10T00:16:45.966Z,98918.31
2023-01-10T00:19:48.501Z,98923.03
2023-01-10T00:22:51.421Z,98914.13
2023-01-10T00:25:54.011Z,98919.25
2023-01-10T00:28:56.878Z,98915.25
2023-01-10T00:31:59.903Z,98914.59
2023-01-10T00:35:04.349Z,98907.19
2023-01-10T00:38:07.539Z,98914.59
2023-01-10T00:41:30.475Z,98915.78
2023-01-10T00:44:33.107Z,98918.47
2023-01-10T00:47:35.913Z,98929.38
2023-01-10T00:50:39.073Z,98943.41
2023-01-10T00:53:42.029Z,98946.41
2023-01-10T00:56:44.769Z,98953.09
2023-01-10T00:59:47.882Z,98957.69
2023-01-10T01:02:51.766Z,98962.81
2023-01-10T01:05:54.831Z,98966.03
2023-01-10T01:08:58.340Z,98965.63
2023-01-10T01:12:01.241Z,98977.69
2023-01-10T01:15:04.183Z,98980.34
2023-01-10T01:18:08.713Z,98984.66
2023-01-10T01:21:11.554Z,98983.12
2023-01-10T01:24:14.496Z,98985.84
2023-01-10T01:27:17.046Z,98984.72
2023-01-10T01:30:20.011Z,98972.69
2023-01-10T01:33:22.662Z,98975.72
2023-01-10T01:36:25.524Z,98975.44
2023-01-10T01:39:28.083Z,98966.88
2023-01-10T01:42:33.853Z,98966.81
2023-01-10T01:45:38.792Z,98965.22
2023-01-10T01:48:44.020Z,98967.94
2023-01-10T01:51:51.918Z,98957.78
2023-01-10T01:54:58.358Z,98951.06
2023-01-10T01:58:06.754Z,98940.53
2023-01-10T02:01:12.201Z,98955.41
2023-01-10T02:04:18.565Z,98946.47
2023-01-10T02:07:22.655Z,98941.37
2023-01-10T02:11:13.282Z,98936.63
2023-01-10T02:14:17.256Z,98935.97
2023-01-10T02:17:19.829Z,98929.75
2023-01-10T02:20:23.344Z,98927.88
2023-01-10T02:23:53.714Z,98940.69
2023-01-10T02:27:12.777Z,98939.16
2023-01-10T02:30:49.137Z,98948.87
2023-01-10T02:33:57.805Z,98956.28
2023-01-10T02:37:20.137Z,98964.44
2023-01-10T02:40:43.927Z,98965.69
2023-01-10T02:43:53.118Z,98968.03
2023-01-10T02:46:56.626Z,98944.22
2023-01-10T02:50:26.955Z,98966.06
2023-01-10T02:53:37.333Z,98958.69
2023-01-10T02:56:48.900Z,98960.62
2023-01-10T03:00:43.655Z,98959.03
2023-01-10T03:04:09.447Z,98973.03
2023-01-10T03:07:25.467Z,98969.50
2023-01-10T03:10:46.691Z,98970.63
2023-01-10T03:13:57.823Z,98974.94
2023-01-10T03:17:04.999Z,98969.50
2023-01-10T03:20:08.781Z,98964.31
2023-01-10T03:23:14.042Z,98983.00
2023-01-10T03:26:25.762Z,98984.47
2023-01-10T03:29:35.402Z,98984.16
2023-01-10T03:32:38.634Z,98989.16
2023-01-10T03:35:57.585Z,98979.81
2023-01-10T03:39:16.464Z,98975.25
2023-01-10T03:43:06.343Z,98969.72
2023-01-10T03:46:18.342Z,98952.59
2023-01-10T03:49:25.280Z,98964.97
2023-01-10T03:52:29.735Z,98972.75
2023-01-10T03:55:33.632Z,98970.50
2023-01-10T03:58:36.833Z,98976.75
2023-01-10T04:01:39.679Z,98986.03
2023-01-10T04:04:42.746Z,98974.38
2023-01-10T04:07:45.558Z,98983.97
2023-01-10T04:10:51.549Z,98986.16
2023-01-10T04:13:54.219Z,98989.00
2023-01-10T04:16:57.034Z,98968.06
2023-01-10T04:19:59.823Z,98982.72
2023-01-10T04:23:02.682Z,98990.78
2023-01-10T04:26:05.461Z,98979.63
2023-01-10T04:29:08.701Z,98989.66
2023-01-10T04:32:11.309Z,98984.59
2023-01-10T04:35:14.383Z,98972.06
2023-01-10T04:38:17.332Z,98964.66
2023-01-10T04:41:20.377Z,98984.25
2023-01-10T04:44:24.103Z,99004.16
2023-01-10T04:47:27.165Z,99001.38
2023-01-10T04:50:30.335Z,99001.38
2023-01-10T04:53:33.375Z,99003.69
2023-01-10T04:56:35.945Z,99010.63
2023-01-10T04:59:38.865Z,99018.78
2023-01-10T05:02:44.412Z,99017.53
2023-01-10T05:05:47.528Z,99035.53
2023-01-10T05:08:50.498Z,99045.72
2023-01-10T05:11:53.385Z,99061.66
2023-01-10T05:14:56.052Z,99058.41
2023-01-10T05:18:00.986Z,99070.87
2023-01-10T05:21:07.241Z,99076.41
2023-01-10T05:24:10.165Z,99089.06
2023-01-10T05:27:12.786Z,99103.94
2023-01-10T05:30:15.846Z,99110.75
2023-01-10T05:33:18.496Z,99099.31
2023-01-10T05:36:21.623Z,99105.12
2023-01-10T05:39:24.238Z,99105.53
2023-01-10T05:42:27.167Z,99096.25
2023-01-10T05:45:29.905Z,99082.19
2023-01-10T05:48:32.981Z,99071.31
2023-01-10T05:51:35.794Z,99086.97
2023-01-10T05:54:38.695Z,99092.34
2023-01-10T05:57:42.516Z,99107.88
2023-01-10T06:00:45.489Z,99086.53
2023-01-10T06:03:48.903Z,99094.59
2023-01-10T06:06:51.470Z,99107.41
2023-01-10T06:09:54.458Z,99111.94
2023-01-10T06:12:57.130Z,99123.66
2023-01-10T06:16:00.513Z,99135.78
2023-01-10T06:19:03.305Z,99151.09
2023-01-10T06:22:07.299Z,99157.78
2023-01-10T06:25:11.406Z,99155.63
2023-01-10T06:28:15.244Z,99149.28
2023-01-10T06:31:17.881Z,99155.78
2023-01-10T06:34:20.844Z,99175.44
2023-01-10T06:37:23.477Z,99179.66
2023-01-10T06:40:27.205Z,99187.47
2023-01-10T06:43:29.837Z,99186.28
2023-01-10T06:46:32.830Z,99191.97
2023-01-10T06:49:35.410Z,99209.78
2023-01-10T06:52:38.583Z,99219.47
2023-01-10T06:55:41.420Z,99218.56
2023-01-10T06:58:46.622Z,99212.75
2023-01-10T07:01:51.844Z,99222.31
2023-01-10T13:08:53.446Z,99635.16
2023-01-10T13:12:17.466Z,99641.34
2023-01-10T13:15:32.914Z,99640.34
2023-01-10T13:18:36.060Z,99662.41
2023-01-10T13:21:40.994Z,99660.41
2023-01-10T13:25:03.649Z,99673.34
2023-01-10T13:28:43.164Z,99675.97
2023-01-10T13:31:47.946Z,99693.28
2023-01-10T13:34:52.267Z,99695.28
2023-01-10T13:37:56.889Z,99700.25
2023-01-10T13:41:05.423Z,99702.78
2023-01-10T13:44:15.607Z,99702.13
2023-01-10T13:47:44.273Z,99716.47
2023-01-10T13:50:52.645Z,99722.22
2023-01-10T13:54:02.602Z,99730.38
2023-01-10T13:57:45.862Z,99719.13
2023-01-10T14:01:12.038Z,99734.84
2023-01-10T14:04:33.543Z,99729.38
2023-01-10T14:07:54.979Z,99734.16
2023-01-10T14:11:11.267Z,99734.84
2023-01-10T14:14:27.485Z,99736.94
2023-01-10T14:17:32.991Z,99748.56
2023-01-10T14:20:37.333Z,99756.81
2023-01-10T14:23:49.718Z,99762.78
2023-01-10T14:26:57.494Z,99767.94
2023-01-10T14:30:02.241Z,99784.56
2023-01-10T14:33:21.779Z,99787.28
2023-01-10T14:36:38.494Z,99804.34
2023-01-10T14:39:42.814Z,99810.66
2023-01-10T14:42:48.580Z,99819.88
2023-01-10T14:46:15.969Z,99829.25
2023-01-10T14:49:36.498Z,99833.00
2023-01-10T14:52:42.414Z,99837.00
2023-01-10T14:55:45.427Z,99832.06
2023-01-10T14:58:48.189Z,99832.94
2023-01-10T15:01:53.652Z,99833.16
2023-01-10T15:05:27.808Z,99854.53
2023-01-10T15:08:31.993Z,99857.09
2023-01-10T15:11:35.181Z,99871.81
2023-01-10T15:14:38.541Z,99870.56
2023-01-10T15:17:42.128Z,99869.19
2023-01-10T15:20:46.186Z,99886.19
2023-01-10T15:23:49.022Z,99888.91
2023-01-10T15:26:53.090Z,99884.28
2023-01-10T15:29:56.716Z,99892.22
2023-01-10T15:33:07.811Z,99899.12
2023-01-10T15:36:22.001Z,99900.78
2023-01-10T15:39:30.798Z,99924.06
2023-01-10T15:42:35.371Z,99924.66
2023-01-10T15:45:56.027Z,99927.47
2023-01-10T15:49:03.021Z,99917.75
2023-01-10T15:52:21.235Z,99937.12
2023-01-10T15:55:40.317Z,99942.44
2023-01-10T15:58:43.571Z,99936.81
2023-01-10T16:01:54.737Z,99942.06
2023-01-10T16:05:06.017Z,99948.03
2023-01-10T16:08:09.625Z,99959.66
2023-01-10T16:12:05.459Z,99966.59
2023-01-10T16:15:29.139Z,99976.44
2023-01-10T16:18:34.047Z,99988.72
2023-01-10T16:21:41.309Z,99997.94
2023-01-10T16:24:45.168Z,100004.28
2023-01-10T16:27:48.040Z,100008.31
2023-01-10T16:30:51.200Z,100019.34
2023-01-10T16:33:53.727Z,100025.06
2023-01-10T16:36:56.693Z,100021.56
2023-01-10T16:39:59.335Z,100028.13
2023-01-10T16:43:20.896Z,100033.84
2023-01-10T16:46:24.163Z,100036.22
2023-01-10T16:49:28.022Z,100044.66
2023-01-10T16:52:31.710Z,100035.97
2023-01-10T16:55:45.509Z,100052.88
2023-01-10T16:58:49.577Z,100057.19
2023-01-10T17:01:58.401Z,100066.44
2023-01-10T17:05:01.009Z,100076.84
2023-01-10T17:08:05.020Z,100080.75
2023-01-10T17:11:13.508Z,100082.25
2023-01-10T17:14:19.234Z,100086.44
2023-01-10T17:17:38.814Z,100089.75
2023-01-10T17:20:41.732Z,100087.59
2023-01-10T17:23:45.313Z,100097.47
2023-01-10T17:26:48.271Z,100117.28
2023-01-10T17:29:50.941Z,100111.75
2023-01-10T17:32:54.947Z,100115.84
2023-01-10T17:35:57.671Z,100100.75
2023-01-10T17:39:01.549Z,100118.81
2023-01-10T17:42:05.654Z,100116.56
2023-01-10T17:45:08.786Z,100139.69
2023-01-10T17:48:18.639Z,100143.22
2023-01-10T17:51:23.012Z,100127.97
2023-01-10T17:54:26.760Z,100141.66
2023-01-10T17:57:29.919Z,100143.38
2023-01-10T18:00:32.659Z,100149.81
2023-01-10T18:03:35.825Z,100157.94
2023-01-10T18:06:38.481Z,100154.00
2023-01-10T18:09:44.575Z,100161.94
2023-01-10T18:12:47.721Z,100166.22
2023-01-10T18:15:52.376Z,100161.81
2023-01-10T18:18:55.910Z,100181.41
2023-01-10T18:21:58.830Z,100181.03
2023-01-10T18:25:01.528Z,100178.63
2023-01-10T18:28:04.658Z,100184.41
2023-01-10T18:31:18.524Z,100208.53
2023-01-10T18:34:21.562Z,100203.66
2023-01-10T18:37:24.219Z,100207.38
2023-01-10T18:40:29.274Z,100212.38
2023-01-10T18:43:33.025Z,100205.38
2023-01-10T18:46:36.094Z,100213.97
2023-01-10T18:49:38.765Z,100228.00
2023-01-10T18:52:43.166Z,100228.91
2023-01-10T18:56:04.638Z,100219.72
2023-01-10T18:59:07.870Z,100245.88
2023-01-10T19:02:14.638Z,100236.69
2023-01-10T19:05:17.788Z,100244.75
2023-01-10T19:08:20.472Z,100252.66
2023-01-10T19:11:23.756Z,100251.31
2023-01-10T19:14:26.589Z,100269.44
2023-01-10T19:17:29.726Z,100261.28
2023-01-10T19:20:32.435Z,100272.59
2023-01-10T19:23:36.035Z,100264.22
2023-01-10T19:26:39.432Z,100285.06
2023-01-10T19:29:46.153Z,100281.53
2023-01-10T19:32:49.253Z,100284.25
2023-01-10T19:35:52.386Z,100289.69
2023-01-10T19:38:57.335Z,100318.25
2023-01-10T19:42:00.305Z,100315.25
2023-01-10T19:45:04.927Z,100309.50
2023-01-10T19:48:08.407Z,100301.34
2023-01-10T19:51:13.140Z,100313.56
2023-01-10T19:54:16.040Z,100320.03
2023-01-10T19:57:18.760Z,100323.53
2023-01-10T20:00:23.747Z,100325.94
2023-01-10T20:03:26.650Z,100348.91
2023-01-10T20:06:32.019Z,100355.25
2023-01-10T20:09:35.077Z,100347.72
2023-01-10T20:12:37.798Z,100332.22
2023-01-10T20:15:43.403Z,100337.28
2023-01-10T20:18:46.242Z,100355.00
2023-01-10T20:21:49.399Z,100344.56
2023-01-10T20:24:52.328Z,100350.03
2023-01-10T20:27:55.303Z,100344.50
2023-01-10T20:30:59.054Z,100345.19
2023-01-10T20:34:02.306Z,100336.69
2023-01-10T20:37:05.215Z,100339.31
2023-01-10T20:40:09.824Z,100350.28
2023-01-10T20:43:13.699Z,100342.47
2023-01-10T20:46:26.414Z,100349.31
2023-01-10T20:49:30.339Z,100350.06
2023-01-10T20:52:33.550Z,100365.87
2023-01-10T20:55:36.617Z,100362.16
2023-01-10T20:58:43.759Z,100353.16
2023-01-10T21:01:46.421Z,100365.63
2023-01-10T21:04:50.656Z,100364.28
2023-01-10T21:07:53.789Z,100353.75
2023-01-10T21:10:57.996Z,100361.53
2023-01-10T21:14:00.866Z,100355.06
2023-01-10T21:17:03.813Z,100349.31
2023-01-10T21:20:09.796Z,100343.47
2023-01-10T21:23:14.238Z,100348.91
2023-01-10T21:26:17.450Z,100345.19
2023-01-10T21:29:20.368Z,100347.44
2023-01-10T21:32:23.784Z,100356.13
2023-01-10T21:35:26.755Z,100357.03
2023-01-10T21:38:29.681Z,100353.59
2023-01-10T21:41:51.417Z,100361.75
2023-01-10T21:44:54.115Z,100361.41
2023-01-10T21:47:57.083Z,100369.44
2023-01-10T21:50:59.931Z,100361.75
2023-01-10T21:54:03.312Z,100362.53
2023-01-10T21:57:05.877Z,100363.84
2023-01-10T22:00:09.364Z,100372.75
2023-01-10T22:03:14.253Z,100369.59
2023-01-10T22:06:17.234Z,100370.62
2023-01-10T22:09:19.899Z,100369.28
2023-01-10T22:12:24.598Z,100366.94
2023-01-10T22:15:27.357Z,100368.56
2023-01-10T22:18:31.520Z,100353.44
2023-01-10T22:21:34.090Z,100355.13
2023-01-10T22:24:37.048Z,100364.53
2023-01-10T22:27:39.643Z,100359.53
2023-01-10T22:30:42.664Z,100356.72
2023-01-10T22:33:45.201Z,100353.66
2023-01-10T22:36:48.251Z,100350.25
2023-01-10T22:39:50.962Z,100363.50
2023-01-10T22:42:54.682Z,100374.50
2023-01-10T22:45:57.456Z,100360.44
2023-01-10T22:49:01.261Z,100371.69
2023-01-10T22:52:05.198Z,100371.69
2023-01-10T22:55:08.368Z,100375.81
2023-01-10T22:58:10.947Z,100375.28
2023-01-10T23:01:19.109Z,100383.69
2023-01-10T23:04:22.193Z,100384.22
2023-01-10T23:07:25.178Z,100391.00
2023-01-10T23:10:30.796Z,100403.13
2023-01-10T23:13:34.780Z,100388.75
2023-01-10T23:16:37.347Z,100389.72
2023-01-10T23:19:40.409Z,100384.12
2023-01-10T23:22:43.193Z,100382.31
2023-01-10T23:25:46.138Z,100386.25
2023-01-10T23:28:51.004Z,100385.75
2023-01-10T23:31:53.818Z,100393.16
2023-01-10T23:34:56.381Z,100392.50
2023-01-10T23:37:59.193Z,100379.25
2023-01-10T23:41:01.977Z,100377.44
2023-01-10T23:44:05.421Z,100373.59
2023-01-10T23:47:07.998Z,100380.25
2023-01-10T23:50:10.954Z,100369.94
2023-01-10T23:53:13.468Z,100387.06
2023-01-10T23:56:16.376Z,100404.78
2023-01-10T23:59:19.372Z,100406.44
